Time;durP1;ratioP1;P1;durP2;ratioP2;P2;SDS_P1;SDS_P2;PMS_P1;PMS_P2;Temp;Humidity;BMP_temperature;BMP_pressure;BME280_temperature;BME280_humidity;BME280_pressure;Samples;Min_cycle;Max_cycle;Signal;HPM_P1;HPM_P2
2022/06/18 00:01:33;;;;;;;20.17;4.70;;;;;;;-144.47;46.45;53082.53;4994671;28;20030;-69
2022/06/18 00:04:05;;;;;;;14.18;4.65;;;;;;;-144.47;46.10;53102.38;4995545;28;20022;-68
2022/06/18 00:06:34;;;;;;;17.25;4.40;;;;;;;-144.47;45.67;53080.53;4999059;28;20525;-64
2022/06/18 00:09:00;;;;;;;24.00;4.10;;;;;;;-144.47;45.38;53092.44;5013270;28;20064;-68
2022/06/18 00:14:10;;;;;;;16.95;4.35;;;;;;;-144.47;44.82;53098.41;4995270;28;20435;-68
2022/06/18 00:16:36;;;;;;;16.83;4.28;;;;;;;-144.47;44.53;53140.13;4995471;28;20407;-66
2022/06/18 00:19:01;;;;;;;10.43;4.25;;;;;;;-144.47;44.58;53130.19;5001979;28;20463;-67
2022/06/18 00:21:28;;;;;;;9.20;3.58;;;;;;;-144.47;44.29;53124.22;4997405;28;20022;-67
2022/06/18 00:23:53;;;;;;;9.27;3.35;;;;;;;-144.47;44.30;53124.22;5008562;28;20049;-65
2022/06/18 00:26:18;;;;;;;18.70;3.92;;;;;;;-144.47;44.54;53102.38;5000139;28;20030;-67
2022/06/18 00:28:45;;;;;;;15.48;3.53;;;;;;;-144.47;44.63;53128.22;5015085;28;20114;-66
2022/06/18 00:31:13;;;;;;;16.75;4.10;;;;;;;-144.47;44.83;53128.22;5017126;28;20034;-67
2022/06/18 00:33:41;;;;;;;11.68;3.33;;;;;;;-144.47;44.91;53118.28;5000005;28;20057;-66
2022/06/18 00:36:14;;;;;;;31.15;5.88;;;;;;;-144.47;44.89;53130.19;5010450;28;20108;-66
2022/06/18 00:38:43;;;;;;;15.18;3.70;;;;;;;-144.47;45.04;53122.25;5004352;28;20019;-67
2022/06/18 00:41:15;;;;;;;20.88;3.95;;;;;;;-144.47;45.21;53122.25;5003927;28;20108;-67
2022/06/18 00:43:50;;;;;;;22.50;4.15;;;;;;;-144.47;45.43;53084.50;5008875;28;20029;-69
2022/06/18 00:46:43;;;;;;;15.90;3.80;;;;;;;-144.47;45.73;53122.25;5003334;28;20033;-68
2022/06/18 00:49:37;;;;;;;15.40;4.25;;;;;;;-144.47;45.85;53114.31;5009228;28;20025;-67
2022/06/18 00:52:45;;;;;;;9.40;3.08;;;;;;;-144.47;46.09;53108.34;4991510;28;20496;-66
2022/06/18 00:55:17;;;;;;;9.30;3.05;;;;;;;-144.47;46.21;53144.09;5000600;28;20037;-66
2022/06/18 00:57:55;;;;;;;22.98;3.83;;;;;;;-144.47;46.55;53124.22;5010958;28;20476;-67
2022/06/18 01:00:28;;;;;;;11.07;3.90;;;;;;;-144.47;46.56;53088.47;5001416;28;20037;-66
2022/06/18 01:02:55;;;;;;;10.95;3.47;;;;;;;-144.47;46.66;53161.97;4992793;28;20480;-66
2022/06/18 01:05:34;;;;;;;10.73;3.20;;;;;;;-144.47;46.77;53158.00;5008381;28;20072;-68
2022/06/18 01:08:03;;;;;;;21.15;4.15;;;;;;;-144.47;46.75;53165.94;5002849;28;20038;-67
2022/06/18 01:10:35;;;;;;;14.38;4.32;;;;;;;-144.47;46.85;53108.34;4990588;28;20110;-67
2022/06/18 01:13:08;;;;;;;17.73;4.40;;;;;;;-144.47;46.69;53156.00;5004450;28;20030;-66
2022/06/18 01:15:34;;;;;;;14.30;4.40;;;;;;;-144.47;46.51;53104.38;5004441;28;20418;-68
2022/06/18 01:18:01;;;;;;;15.73;3.83;;;;;;;-144.47;46.52;53146.09;5001844;28;20026;-67
2022/06/18 01:20:27;;;;;;;10.43;3.17;;;;;;;-144.47;46.67;53114.31;5004185;28;20091;-66
2022/06/18 01:22:59;;;;;;;12.80;2.97;;;;;;;-144.47;46.50;53142.09;4988684;28;20527;-67
2022/06/18 01:25:27;;;;;;;11.98;3.38;;;;;;;-144.47;46.46;53122.25;4999564;28;20435;-66
2022/06/18 01:27:55;;;;;;;13.02;3.08;;;;;;;-144.47;46.25;53116.28;4998255;28;20033;-67
2022/06/18 01:30:22;;;;;;;10.65;3.28;;;;;;;-144.47;46.16;53112.31;5003637;28;20069;-68
2022/06/18 01:32:51;;;;;;;11.40;2.95;;;;;;;-144.47;46.35;53102.38;4997709;28;20022;-69
2022/06/18 01:35:18;;;;;;;11.02;3.40;;;;;;;-144.47;46.37;53150.06;4992130;28;20322;-62
2022/06/18 01:37:44;;;;;;;22.35;4.85;;;;;;;-144.47;46.45;53142.09;4991708;28;20028;-67
2022/06/18 01:40:15;;;;;;;21.95;3.40;;;;;;;-144.47;46.70;53150.06;4991386;28;20034;-65
2022/06/18 01:42:45;;;;;;;9.02;3.42;;;;;;;-144.47;46.95;53136.16;4992711;28;20523;-65
2022/06/18 01:45:16;;;;;;;8.95;3.30;;;;;;;-144.47;47.08;53140.13;4991154;28;20117;-65
2022/06/18 01:47:47;;;;;;;14.73;3.00;;;;;;;-144.47;47.01;53156.00;5005980;28;20108;-63
2022/06/18 01:50:18;;;;;;;30.10;5.25;;;;;;;-144.47;47.19;53132.19;5002346;28;20049;-67
2022/06/18 01:52:51;;;;;;;17.88;3.67;;;;;;;-144.47;47.49;53124.22;4995930;28;20027;-67
2022/06/18 01:55:23;;;;;;;10.80;3.08;;;;;;;-144.47;47.54;53152.03;4992465;28;20035;-68
2022/06/18 01:57:54;;;;;;;7.95;2.67;;;;;;;-144.47;47.58;53118.28;4992248;28;20022;-66
2022/06/18 02:00:24;;;;;;;17.38;3.38;;;;;;;-144.47;47.62;53175.88;4990650;28;20038;-66
2022/06/18 02:02:51;;;;;;;6.88;2.70;;;;;;;-144.47;47.71;53120.25;4998343;28;20094;-67
2022/06/18 02:05:17;;;;;;;11.82;2.70;;;;;;;-144.47;47.62;53118.28;5015982;28;20036;-67
2022/06/18 02:07:45;;;;;;;9.23;3.58;;;;;;;-144.47;47.52;53138.13;5008141;28;20022;-64
2022/06/18 02:10:18;;;;;;;20.52;3.00;;;;;;;-144.47;47.40;53124.22;5004173;28;20025;-68
2022/06/18 02:12:44;;;;;;;10.80;3.40;;;;;;;-144.47;47.24;53094.44;5001701;28;20113;-67
2022/06/18 02:15:22;;;;;;;15.45;2.85;;;;;;;-144.47;47.19;53140.13;4996805;28;20041;-67
2022/06/18 02:17:48;;;;;;;10.00;3.00;;;;;;;-144.47;47.19;53108.34;5009414;28;20025;-69
2022/06/18 02:20:25;;;;;;;14.50;2.88;;;;;;;-144.47;47.36;53132.19;5004939;28;20122;-68
2022/06/18 02:22:53;;;;;;;16.70;3.72;;;;;;;-144.47;47.48;53160.00;5003591;28;20164;-67
2022/06/18 02:25:23;;;;;;;8.95;3.05;;;;;;;-144.47;47.59;53116.28;5004651;28;20034;-66
2022/06/18 02:27:55;;;;;;;9.25;3.17;;;;;;;-144.47;47.96;53146.09;5008009;28;20117;-64
2022/06/18 02:30:24;;;;;;;7.78;2.97;;;;;;;-144.47;47.99;53130.19;4998383;28;20108;-63
2022/06/18 02:33:16;;;;;;;17.77;3.38;;;;;;;-144.47;48.08;53142.09;5012275;28;20042;-66
2022/06/18 02:35:41;;;;;;;8.18;3.10;;;;;;;-144.47;48.14;53146.09;4990807;28;20026;-66
2022/06/18 02:38:17;;;;;;;16.30;3.58;;;;;;;-144.47;48.04;53144.09;5009374;28;20017;-66
2022/06/18 02:40:43;;;;;;;14.20;3.08;;;;;;;-144.47;48.08;53160.00;5009615;28;20021;-68
2022/06/18 02:43:08;;;;;;;11.77;2.90;;;;;;;-144.47;48.08;53154.03;5003685;28;20045;-68
2022/06/18 02:45:36;;;;;;;21.88;3.88;;;;;;;-144.47;48.07;53134.16;5002905;28;20083;-67
2022/06/18 02:48:01;;;;;;;11.13;3.65;;;;;;;-144.47;48.06;53142.09;5010008;28;20060;-66
2022/06/18 02:50:30;;;;;;;6.90;2.67;;;;;;;-144.47;48.05;53150.06;5008284;28;20030;-69
2022/06/18 02:53:01;;;;;;;10.32;3.25;;;;;;;-144.47;47.99;53106.34;4997633;28;20034;-67
2022/06/18 02:55:31;;;;;;;14.80;3.35;;;;;;;-144.47;48.00;53106.34;4995526;28;20022;-67
2022/06/18 02:58:04;;;;;;;9.95;3.10;;;;;;;-144.47;48.11;53152.03;5002074;28;20022;-69
2022/06/18 03:00:32;;;;;;;13.80;3.80;;;;;;;-144.47;48.19;53158.00;5002778;28;20061;-65
2022/06/18 03:02:57;;;;;;;13.20;3.05;;;;;;;-144.47;48.23;53148.06;5005279;28;20030;-67
2022/06/18 03:05:27;;;;;;;11.57;3.10;;;;;;;-144.47;48.36;53126.22;5009767;28;20088;-67
2022/06/18 03:07:53;;;;;;;9.27;3.30;;;;;;;-144.47;48.38;53116.28;4999224;28;20062;-66
2022/06/18 03:13:03;;;;;;;14.30;2.67;;;;;;;-144.47;48.04;53142.09;5006775;28;20423;-67
2022/06/18 03:15:30;;;;;;;8.68;3.58;;;;;;;-144.47;48.09;53120.25;5011162;28;20416;-66
2022/06/18 03:17:58;;;;;;;8.75;3.10;;;;;;;-144.47;48.09;53138.13;5013800;28;20416;-67
2022/06/18 03:20:28;;;;;;;15.57;3.40;;;;;;;-144.47;48.29;53122.25;4995411;28;20026;-67
2022/06/18 03:22:54;;;;;;;11.98;3.25;;;;;;;-144.47;48.33;53158.00;5007824;28;20061;-66
2022/06/18 03:25:22;;;;;;;8.57;2.80;;;;;;;-144.47;48.29;53112.31;4996952;28;20065;-67
2022/06/18 03:27:47;;;;;;;14.70;3.47;;;;;;;-144.47;48.22;53160.00;5009835;28;20080;-67
2022/06/18 03:30:13;;;;;;;18.38;3.47;;;;;;;-144.47;48.23;53110.31;5001562;28;20034;-66
2022/06/18 03:32:38;;;;;;;13.95;2.88;;;;;;;-144.47;48.29;53110.31;5013118;28;20110;-69
2022/06/18 03:35:04;;;;;;;11.80;2.90;;;;;;;-144.47;48.35;53160.00;5009555;28;20028;-65
2022/06/18 03:37:29;;;;;;;14.50;3.20;;;;;;;-144.47;48.18;53154.03;5009170;28;20040;-67
2022/06/18 03:39:55;;;;;;;13.15;3.42;;;;;;;-144.47;48.19;53144.09;5002596;28;20029;-67
2022/06/18 03:42:21;;;;;;;8.65;3.05;;;;;;;-144.47;48.19;53165.94;5002913;28;20503;-66
2022/06/18 03:44:46;;;;;;;19.58;3.65;;;;;;;-144.47;48.09;53132.19;5017509;22;20049;-65
2022/06/18 03:47:12;;;;;;;14.85;3.35;;;;;;;-144.47;47.90;53126.22;5045170;28;20032;-67
2022/06/18 03:49:37;;;;;;;9.00;3.25;;;;;;;-144.47;48.17;53138.13;5047858;28;20025;-66
2022/06/18 03:52:05;;;;;;;18.58;3.45;;;;;;;-144.47;48.19;53132.19;5044011;28;20028;-67
2022/06/18 03:54:31;;;;;;;12.07;2.83;;;;;;;-144.47;48.20;53136.16;5044342;28;20044;-65
2022/06/18 03:56:56;;;;;;;14.00;2.90;;;;;;;-144.47;48.10;53146.09;5029116;28;20025;-68
2022/06/18 03:59:22;;;;;;;13.13;2.72;;;;;;;-144.47;48.11;53150.06;5027321;28;20032;-67
2022/06/18 04:01:48;;;;;;;10.68;3.65;;;;;;;-144.47;47.85;53148.06;5028637;28;20026;-67
2022/06/18 04:04:14;;;;;;;16.38;3.42;;;;;;;-144.47;47.84;53144.09;5028899;28;20021;-66
2022/06/18 04:06:42;;;;;;;9.13;2.70;;;;;;;-144.47;47.74;53140.13;5027684;28;20021;-66
2022/06/18 04:09:08;;;;;;;13.55;3.08;;;;;;;-144.47;47.74;53120.25;5028075;28;20383;-67
2022/06/18 04:11:34;;;;;;;7.70;2.63;;;;;;;-144.47;47.57;53140.13;5028696;28;20095;-67
2022/06/18 04:13:59;;;;;;;11.43;2.80;;;;;;;-144.47;47.57;53163.97;5028087;28;20033;-68
2022/06/18 04:16:25;;;;;;;5.43;2.78;;;;;;;-144.47;47.50;53126.22;5027762;28;20071;-67
2022/06/18 04:18:51;;;;;;;10.70;2.97;;;;;;;-144.47;47.29;53160.00;5027909;28;20508;-67
2022/06/18 04:21:16;;;;;;;10.00;2.45;;;;;;;-144.47;47.42;53106.34;5026596;28;20116;-68
2022/06/18 04:23:43;;;;;;;13.30;2.55;;;;;;;-144.47;47.17;53126.22;5028290;28;20025;-67
2022/06/18 04:26:11;;;;;;;20.60;3.60;;;;;;;-144.47;47.07;53106.34;5027305;28;20506;-70
2022/06/18 04:28:37;;;;;;;6.93;3.20;;;;;;;-144.47;47.02;53156.00;5030873;28;20723;-67
2022/06/18 04:31:03;;;;;;;10.52;2.85;;;;;;;-144.47;46.79;53096.41;5032352;28;20521;-66
2022/06/18 04:33:28;;;;;;;11.35;2.80;;;;;;;-144.47;46.57;53142.09;5031888;28;20029;-68
2022/06/18 04:35:55;;;;;;;9.93;2.78;;;;;;;-144.47;46.28;53148.06;5031760;28;20390;-64
2022/06/18 04:38:22;;;;;;;8.93;3.03;;;;;;;-144.47;46.36;53150.06;5032053;28;20108;-66
2022/06/18 04:40:48;;;;;;;11.88;3.10;;;;;;;-144.47;46.07;53140.13;5031611;28;20109;-68
2022/06/18 04:43:14;;;;;;;19.20;2.53;;;;;;;-144.47;45.97;53138.13;5031444;28;20108;-69
2022/06/18 04:45:39;;;;;;;10.05;2.50;;;;;;;-144.47;45.74;53171.91;5031087;28;20056;-67
2022/06/18 04:48:06;;;;;;;7.90;2.60;;;;;;;-144.47;45.43;53112.31;5031790;28;20067;-66
2022/06/18 04:50:37;;;;;;;8.75;2.80;;;;;;;-144.47;45.27;53110.31;5031552;28;20104;-67
2022/06/18 04:53:04;;;;;;;9.40;2.67;;;;;;;-144.47;45.37;53094.44;5031416;28;20029;-66
2022/06/18 04:55:29;;;;;;;5.45;2.67;;;;;;;-144.47;44.93;53126.22;5031104;28;20041;-68
2022/06/18 04:57:54;;;;;;;6.25;2.20;;;;;;;-144.47;44.66;53130.19;5031863;28;20025;-68
2022/06/18 05:00:20;;;;;;;9.90;2.47;;;;;;;-144.47;44.50;53086.50;5030022;28;20112;-67
2022/06/18 05:02:46;;;;;;;4.68;1.90;;;;;;;-144.47;44.32;53122.25;5031381;28;20731;-66
2022/06/18 05:05:15;;;;;;;6.68;2.20;;;;;;;-144.47;44.11;53110.31;5025467;28;20037;-67
2022/06/18 05:07:41;;;;;;;10.43;2.50;;;;;;;-144.47;43.66;53098.41;5031270;28;20026;-66
2022/06/18 05:10:07;;;;;;;5.93;2.42;;;;;;;-144.47;43.42;53102.38;5030927;28;20021;-67
2022/06/18 05:12:32;;;;;;;7.30;2.22;;;;;;;-144.47;43.24;53158.00;5030017;28;20075;-65
2022/06/18 05:14:58;;;;;;;6.68;2.80;;;;;;;-144.47;42.36;53120.25;5030151;28;20025;-70
2022/06/18 05:17:30;;;;;;;7.28;2.47;;;;;;;-144.47;42.29;53078.53;5031151;28;20127;-65
2022/06/18 05:19:56;;;;;;;12.23;3.75;;;;;;;-144.47;42.29;53106.34;5030454;28;20605;-65
2022/06/18 05:22:22;;;;;;;11.95;3.15;;;;;;;-144.47;42.19;53118.28;5029023;28;20427;-66
2022/06/18 05:24:47;;;;;;;13.70;2.33;;;;;;;-144.47;41.80;53108.34;5031197;28;20068;-68
2022/06/18 05:27:19;;;;;;;10.48;2.20;;;;;;;-144.47;41.77;53092.44;5030908;28;20025;-65
2022/06/18 05:29:44;;;;;;;7.95;1.95;;;;;;;-144.47;41.38;53116.28;5028174;28;20078;-67
2022/06/18 05:32:10;;;;;;;13.10;2.65;;;;;;;-144.47;41.35;53112.31;5030574;28;20033;-69
2022/06/18 05:34:35;;;;;;;16.08;2.42;;;;;;;-144.47;41.26;53056.69;5027761;28;20021;-64
2022/06/18 05:37:01;;;;;;;8.48;2.33;;;;;;;-144.47;41.07;53078.53;5020247;28;20064;-65
2022/06/18 05:39:26;;;;;;;7.65;2.60;;;;;;;-144.47;41.10;53096.41;5029375;28;20128;-68
2022/06/18 05:41:51;;;;;;;19.88;2.40;;;;;;;-144.47;40.98;53124.22;5030230;28;20034;-66
2022/06/18 05:44:17;;;;;;;5.85;2.13;;;;;;;-144.47;41.24;53098.41;5029763;28;20395;-66
2022/06/18 05:46:42;;;;;;;11.30;2.13;;;;;;;-144.47;41.33;53078.53;5030567;28;20084;-65
2022/06/18 05:49:08;;;;;;;7.07;2.63;;;;;;;-144.47;41.31;53114.31;5028500;28;20021;-68
2022/06/18 05:51:34;;;;;;;6.20;2.50;;;;;;;-144.47;41.10;53066.63;5030607;28;20025;-68
2022/06/18 05:53:59;;;;;;;13.65;2.17;;;;;;;-144.47;41.11;53094.44;5029622;28;20104;-70
2022/06/18 05:56:25;;;;;;;7.53;2.00;;;;;;;-144.47;41.20;53076.56;5029603;28;20030;-69
2022/06/18 05:58:50;;;;;;;11.77;2.50;;;;;;;-144.47;41.33;53094.44;5026935;28;20056;-69
2022/06/18 06:01:16;;;;;;;9.30;3.72;;;;;;;-144.47;41.25;53072.59;5030367;28;20033;-70
2022/06/18 06:03:41;;;;;;;12.82;2.10;;;;;;;-144.47;40.93;53100.41;5029851;28;20041;-70
2022/06/18 06:06:06;;;;;;;8.77;1.98;;;;;;;-144.47;40.88;53062.66;5029755;28;20637;-70
2022/06/18 06:08:32;;;;;;;11.52;2.10;;;;;;;-144.47;40.33;53056.69;5029213;28;20060;-67
2022/06/18 06:13:41;;;;;;;8.63;2.03;;;;;;;-144.47;39.45;53054.72;5029334;28;20036;-69
2022/06/18 06:16:06;;;;;;;5.63;2.13;;;;;;;-144.47;39.29;53036.84;5030495;28;20037;-67
2022/06/18 06:18:32;;;;;;;10.35;2.00;;;;;;;-144.47;39.17;53120.25;5028415;28;20018;-67
2022/06/18 06:21:00;;;;;;;19.58;2.33;;;;;;;-144.47;39.08;53094.44;5030004;28;20026;-69
2022/06/18 06:23:25;;;;;;;8.55;2.17;;;;;;;-144.47;39.01;53078.53;5029870;28;20021;-67
2022/06/18 06:25:51;;;;;;;8.80;1.90;;;;;;;-144.47;39.12;53068.63;5028255;28;20021;-72
2022/06/18 06:28:28;;;;;;;14.57;2.05;;;;;;;-144.47;39.01;53108.34;5029478;28;20112;-69
2022/06/18 06:30:55;;;;;;;8.50;2.10;;;;;;;-144.47;39.16;53062.66;5028557;28;20088;-66
2022/06/18 06:33:21;;;;;;;9.32;2.22;;;;;;;-144.47;38.63;53098.41;5029479;28;20025;-69
2022/06/18 06:35:47;;;;;;;6.43;1.95;;;;;;;-144.47;38.70;53074.56;5029019;28;20095;-68
2022/06/18 06:38:13;;;;;;;6.57;1.98;;;;;;;-144.47;38.23;53052.72;5028038;28;20036;-69
2022/06/18 06:40:42;;;;;;;7.50;2.00;;;;;;;-144.47;38.04;53050.75;5028589;28;20047;-71
2022/06/18 06:43:09;;;;;;;;;;;;;;;-144.47;37.09;53058.69;5030787;28;20029;-69
2022/06/18 06:45:35;;;;;;;5.90;1.95;;;;;;;-144.47;36.87;53044.78;5029264;28;19912;-68
2022/06/18 06:48:01;;;;;;;9.20;2.22;;;;;;;-144.47;36.39;53054.72;5029635;28;20568;-71
2022/06/18 06:50:28;;;;;;;6.32;2.97;;;;;;;-144.47;36.41;53050.75;5029277;28;20033;-70
2022/06/18 06:52:54;;;;;;;5.15;1.75;;;;;;;-144.47;36.21;53062.66;5029903;28;20067;-69
2022/06/18 06:58:08;;;;;;;8.93;2.20;;;;;;;-144.47;35.98;53050.75;5019800;28;20056;-69
2022/06/18 07:00:38;;;;;;;7.28;2.28;;;;;;;-144.47;36.16;53076.56;5026901;28;20451;-71
2022/06/18 07:03:04;;;;;;;9.27;2.15;;;;;;;-144.47;35.98;53052.72;5029701;28;20062;-71
2022/06/18 07:05:29;;;;;;;6.93;2.25;;;;;;;-144.47;35.70;53066.63;5023303;28;20048;-71
2022/06/18 07:07:54;;;;;;;10.23;2.75;;;;;;;-144.47;34.87;53044.78;5021252;28;20091;-69
2022/06/18 07:10:20;;;;;;;4.70;2.00;;;;;;;-144.47;34.59;53030.88;5028100;28;20037;-70
2022/06/18 07:12:45;;;;;;;12.80;2.60;;;;;;;-144.47;34.20;53003.06;5029127;28;20032;-69
2022/06/18 07:15:12;;;;;;;12.80;4.30;;;;;;;-144.47;33.96;53032.88;5027192;28;20030;-72
2022/06/18 07:17:38;;;;;;;6.45;2.00;;;;;;;-144.47;33.38;53015.00;5025802;28;20032;-68
2022/06/18 07:20:05;;;;;;;9.43;2.08;;;;;;;-144.47;33.51;53022.94;5028115;28;20021;-70
2022/06/18 07:22:32;;;;;;;5.63;2.03;;;;;;;-144.47;33.70;53024.91;5029439;28;20021;-71
2022/06/18 07:24:58;;;;;;;6.07;2.08;;;;;;;-144.47;32.92;53034.84;5029281;28;20109;-70
2022/06/18 07:27:23;;;;;;;7.82;2.00;;;;;;;-144.47;32.79;53040.81;5028249;28;20117;-69
2022/06/18 07:29:49;;;;;;;10.02;2.22;;;;;;;-144.47;32.07;53028.88;5028132;28;20087;-71
2022/06/18 07:32:17;;;;;;;6.35;2.15;;;;;;;-144.47;32.21;52999.09;5029432;28;20029;-70
2022/06/18 07:34:44;;;;;;;4.40;1.85;;;;;;;-144.47;32.18;53018.97;5023734;28;20510;-69
2022/06/18 07:37:10;;;;;;;5.03;1.80;;;;;;;-144.47;32.25;53022.94;5027682;28;20064;-70
2022/06/18 07:39:36;;;;;;;11.50;2.38;;;;;;;-144.47;32.33;53028.88;5027890;28;20049;-70
2022/06/18 07:42:03;;;;;;;6.22;1.80;;;;;;;-144.47;32.40;53016.97;5023647;28;20446;-67
2022/06/18 07:44:29;;;;;;;5.30;2.08;;;;;;;-144.47;32.24;52995.13;5027436;28;20053;-71
2022/06/18 07:47:03;;;;;;;10.05;2.05;;;;;;;-144.47;31.89;53016.97;5023628;28;20419;-69
2022/06/18 07:49:30;;;;;;;6.57;1.80;;;;;;;-144.47;31.95;53018.97;5026853;28;20032;-67
2022/06/18 07:51:56;;;;;;;9.32;2.40;;;;;;;-144.47;31.64;52991.16;5024876;28;20044;-70
2022/06/18 07:54:22;;;;;;;13.05;2.47;;;;;;;-144.47;31.46;52991.16;5026113;28;20128;-67
2022/06/18 07:56:48;;;;;;;4.75;1.90;;;;;;;-144.47;31.51;53038.81;5010133;28;20120;-70
2022/06/18 07:59:13;;;;;;;5.93;2.03;;;;;;;-144.47;31.41;52981.22;5022287;28;20196;-69
2022/06/18 08:01:39;;;;;;;4.30;2.20;;;;;;;-144.47;31.46;52999.09;5029813;28;20030;-67
2022/06/18 08:04:06;;;;;;;9.95;2.00;;;;;;;-144.47;31.32;53005.06;5037185;28;20040;-68
2022/06/18 08:06:32;;;;;;;4.72;1.92;;;;;;;-144.47;31.01;53038.81;5031577;28;20501;-70
2022/06/18 08:08:58;;;;;;;4.65;1.80;;;;;;;-144.47;31.11;52999.09;5020552;28;20132;-68
2022/06/18 08:11:25;;;;;;;3.45;1.50;;;;;;;-144.47;31.15;52995.13;5026015;28;20117;-68
2022/06/18 08:13:52;;;;;;;6.97;2.50;;;;;;;-144.47;30.96;52997.09;5024964;28;20041;-70
2022/06/18 08:16:18;;;;;;;10.73;2.08;;;;;;;-144.47;31.20;52999.09;5024854;28;20047;-69
2022/06/18 08:18:44;;;;;;;9.07;2.00;;;;;;;-144.47;31.16;52967.31;5023359;28;20027;-67
2022/06/18 08:21:09;;;;;;;11.25;2.00;;;;;;;-144.47;31.29;53024.91;5023504;28;20026;-69
2022/06/18 08:23:36;;;;;;;4.95;1.80;;;;;;;-144.47;31.13;52989.16;5030227;28;20474;-68
2022/06/18 08:26:01;;;;;;;4.53;1.90;;;;;;;-144.47;31.01;52997.09;5021861;28;20320;-70
2022/06/18 08:28:27;;;;;;;5.07;2.40;;;;;;;-144.47;31.24;52981.22;5024385;28;20668;-70
2022/06/18 08:30:52;;;;;;;8.75;1.88;;;;;;;-144.47;31.06;53003.06;5020635;28;20080;-66
2022/06/18 08:33:18;;;;;;;5.80;2.05;;;;;;;-144.47;30.99;52981.22;5023562;28;20036;-68
2022/06/18 08:35:43;;;;;;;11.73;1.80;;;;;;;-144.47;30.94;52993.13;5028386;28;20040;-68
2022/06/18 08:38:09;;;;;;;9.00;1.95;;;;;;;-144.47;30.99;52969.31;5024123;28;20022;-67
2022/06/18 08:40:51;;;;;;;5.68;1.60;;;;;;;-144.47;31.05;52989.16;5023758;28;20025;-70
2022/06/18 08:43:57;;;;;;;3.28;1.80;;;;;;;-144.47;30.94;52989.16;5021959;28;20040;-69
2022/06/18 08:46:53;;;;;;;7.07;2.10;;;;;;;-144.47;30.83;52947.47;5019319;28;20045;-67
2022/06/18 08:49:19;;;;;;;6.10;2.35;;;;;;;-144.47;30.72;52975.25;5020570;28;20029;-67
2022/06/18 08:52:02;;;;;;;4.30;1.98;;;;;;;-144.47;30.64;52987.19;5022818;28;20037;-67
2022/06/18 08:54:40;;;;;;;8.65;2.03;;;;;;;-144.47;30.86;53018.97;5023784;28;20044;-68
2022/06/18 08:57:08;;;;;;;6.68;2.67;;;;;;;-144.47;30.74;52983.22;5024032;28;20029;-68
2022/06/18 09:00:05;;;;;;;6.82;2.45;;;;;;;-144.47;30.71;53026.91;5022817;28;20106;-66
2022/06/18 09:02:47;;;;;;;12.52;2.67;;;;;;;-144.47;30.74;52963.34;5024071;28;20068;-68
2022/06/18 09:05:22;;;;;;;6.85;2.10;;;;;;;-144.47;30.75;53015.00;5021671;28;20092;-68
2022/06/18 09:08:06;;;;;;;11.60;2.20;;;;;;;-144.47;30.51;52971.28;5023666;28;20025;-66
2022/06/18 09:10:44;;;;;;;5.53;2.20;;;;;;;-144.47;30.57;52953.41;5023795;28;20497;-68
2022/06/18 09:13:24;;;;;;;11.70;2.45;;;;;;;-144.47;30.47;52975.25;5023569;28;20037;-66
2022/06/18 09:15:56;;;;;;;8.27;3.25;;;;;;;-144.47;30.71;52983.22;5021653;28;20478;-68
2022/06/18 09:18:34;;;;;;;5.40;1.90;;;;;;;-144.47;30.58;52969.31;5024292;28;20600;-67
2022/06/18 09:21:04;;;;;;;10.80;2.00;;;;;;;-144.47;30.61;52951.44;5023412;28;20037;-67
2022/06/18 09:23:36;;;;;;;7.25;2.28;;;;;;;-144.47;30.68;52965.34;5023301;28;20032;-66
2022/06/18 09:26:09;;;;;;;6.43;2.20;;;;;;;-144.47;30.96;52975.25;5022824;28;20056;-66
2022/06/18 09:28:40;;;;;;;11.00;2.33;;;;;;;-144.47;30.44;52961.34;5021955;28;20075;-68
2022/06/18 09:31:14;;;;;;;8.38;2.10;;;;;;;-144.47;30.37;52979.22;5023652;28;20108;-68
2022/06/18 09:33:45;;;;;;;8.63;2.15;;;;;;;-144.47;30.61;52943.47;5023255;28;20035;-67
2022/06/18 09:36:18;;;;;;;7.43;2.20;;;;;;;-144.47;30.75;52975.25;5032679;28;20041;-67
2022/06/18 09:38:48;;;;;;;8.98;2.83;;;;;;;-144.47;30.66;52985.19;5022457;28;20029;-68
2022/06/18 09:41:47;;;;;;;11.38;2.20;;;;;;;-144.47;30.54;52979.22;5024327;28;20095;-67
2022/06/18 09:44:29;;;;;;;7.22;2.55;;;;;;;-144.47;30.54;52949.44;5021853;28;20723;-69
2022/06/18 09:47:12;;;;;;;7.00;2.50;;;;;;;-144.47;30.51;52967.31;5026529;22;20103;-84
2022/06/18 09:49:40;;;;;;;18.42;3.90;;;;;;;-144.47;30.68;52925.59;5029475;28;20057;-87
2022/06/18 09:52:32;;;;;;;10.82;2.67;;;;;;;-144.47;30.51;52959.38;5031798;28;20036;-87
2022/06/18 09:55:33;;;;;;;12.32;2.60;;;;;;;-144.47;30.78;52973.28;5030362;28;20029;-88
2022/06/18 09:58:01;;;;;;;13.80;3.50;;;;;;;-144.47;30.41;52945.47;5027644;28;20049;-88
2022/06/18 10:00:41;;;;;;;8.68;2.70;;;;;;;-144.47;30.40;52953.41;5017815;28;20022;-88
2022/06/18 10:09:07;;;;;;;8.18;2.63;;;;;;;-144.47;30.58;52971.28;5018773;28;20095;-89
2022/06/18 10:11:43;;;;;;;15.45;3.65;;;;;;;-144.47;30.42;52945.47;5013251;28;20163;-89
2022/06/18 10:14:19;;;;;;;14.10;2.85;;;;;;;-144.47;30.21;52967.31;5002879;28;20078;-88
2022/06/18 10:17:00;;;;;;;13.80;2.63;;;;;;;-144.47;30.12;52965.34;4999260;28;20030;-87
2022/06/18 10:19:51;;;;;;;9.55;2.65;;;;;;;-144.47;30.12;52921.63;5002702;28;20025;-89
2022/06/18 10:22:25;;;;;;;8.75;2.75;;;;;;;-144.47;30.04;52943.47;5000879;28;20100;-87
2022/06/18 10:25:43;;;;;;;8.05;2.78;;;;;;;-144.47;29.87;52947.47;5003521;28;20041;-86
2022/06/18 10:28:32;;;;;;;14.90;3.00;;;;;;;-144.47;29.42;52951.44;4999894;28;20031;-87
2022/06/18 10:31:27;;;;;;;16.00;2.80;;;;;;;-144.47;29.04;52933.56;5005050;28;20133;-87
2022/06/18 10:33:55;;;;;;;15.25;3.20;;;;;;;-144.47;29.19;52897.81;4997145;28;20041;-86
2022/06/18 10:36:37;;;;;;;10.70;3.08;;;;;;;-144.47;29.26;52951.44;4998254;28;20080;-88
2022/06/18 10:39:20;;;;;;;17.13;3.33;;;;;;;-144.47;28.47;52907.72;4998442;28;20036;-87
2022/06/18 10:42:40;;;;;;;;;;;;;;;;;;;;;
2022/06/18 10:46:01;;;;;;;;;;;;;;;;;;;;;
2022/06/18 10:49:18;;;;;;;13.30;2.88;;;;;;;-144.47;28.77;52941.50;4965137;28;20535;-90
2022/06/18 11:02:34;;;;;;;;;;;;;;;;;;;;;
2022/06/18 11:06:13;;;;;;;12.90;4.15;;;;;;;-144.47;28.70;52945.47;4915213;29;20112;-91
2022/06/18 11:09:19;;;;;;;;;;;;;;;;;;;;;
2022/06/18 11:26:10;;;;;;;15.93;3.60;;;;;;;-144.47;27.84;52929.59;4870872;29;20043;-90
2022/06/18 11:29:07;;;;;;;20.73;2.92;;;;;;;-144.47;27.84;52945.47;4877164;29;20059;-89
2022/06/18 11:39:08;;;;;;;17.05;3.78;;;;;;;-144.47;27.91;52913.69;4885027;29;20163;-93
2022/06/18 11:56:01;;;;;;;;;;;;;;;;;;;;;
2022/06/18 12:02:03;;;;;;;11.13;2.92;;;;;;;-144.47;27.46;52925.59;4912316;23;20052;-67
2022/06/18 12:04:38;;;;;;;23.20;3.65;;;;;;;-144.47;27.06;52903.75;5014971;28;20052;-70
2022/06/18 12:07:10;;;;;;;18.70;3.50;;;;;;;-144.47;27.05;52881.91;5018233;28;20060;-67
2022/06/18 12:09:36;;;;;;;22.13;3.80;;;;;;;-144.47;27.13;52893.81;5017867;28;20470;-67
2022/06/18 12:12:24;;;;;;;23.33;3.35;;;;;;;-144.47;27.36;52919.66;5019285;28;20080;-67
2022/06/18 12:15:04;;;;;;;12.05;3.38;;;;;;;-144.47;27.28;52893.81;5018629;28;20096;-66
2022/06/18 12:17:53;;;;;;;15.23;3.17;;;;;;;-144.47;26.92;52905.75;5018379;28;20120;-68
2022/06/18 12:21:00;;;;;;;29.55;4.85;;;;;;;-144.47;26.87;52883.91;5017488;28;20112;-66
2022/06/18 12:23:58;;;;;;;21.17;3.78;;;;;;;-144.47;27.04;52899.78;5034093;28;20732;-68
2022/06/18 12:26:43;;;;;;;28.48;5.32;;;;;;;-144.47;26.99;52905.75;5019840;28;20032;-68
2022/06/18 12:29:11;;;;;;;13.07;3.95;;;;;;;-144.47;26.96;52885.88;5018324;28;20471;-70
2022/06/18 12:31:41;;;;;;;;;;;;;;;-144.47;26.91;52909.72;5018066;28;20045;-66
2022/06/18 12:34:39;;;;;;;23.67;3.60;;;;;;;-144.47;26.61;52856.09;5018036;28;19928;-69
2022/06/18 12:37:28;;;;;;;25.23;4.25;;;;;;;-144.47;26.41;52891.84;5017501;28;20035;-68
2022/06/18 12:40:20;;;;;;;22.10;3.90;;;;;;;-144.47;26.63;52879.94;5019431;28;20064;-66
2022/06/18 12:43:08;;;;;;;26.70;4.47;;;;;;;-144.47;26.66;52871.97;5018795;28;20151;-66
2022/06/18 12:45:53;;;;;;;24.92;3.75;;;;;;;-144.47;26.34;52891.84;5017775;28;20343;-69
2022/06/18 12:48:32;;;;;;;15.18;4.72;;;;;;;-144.47;25.88;52870.00;5022573;28;20151;-69